sensor_id;sensor_type;location;lat;lon;timestamp;P1;durP1;ratioP1;P2;durP2;ratioP2
3922;SDS011;1976;51.694;6.256;2023-07-13T00:01:58;8.67;;;2.70;;
3922;SDS011;1976;51.694;6.256;2023-07-13T00:04:24;3.87;;;2.20;;
3922;SDS011;1976;51.694;6.256;2023-07-13T00:06:50;9.60;;;3.50;;
3922;SDS011;1976;51.694;6.256;2023-07-13T00:09:17;12.60;;;2.60;;
3922;SDS011;1976;51.694;6.256;2023-07-13T00:11:44;2.50;;;2.27;;
3922;SDS011;1976;51.694;6.256;2023-07-13T00:14:12;4.67;;;2.17;;
3922;SDS011;1976;51.694;6.256;2023-07-13T00:16:40;9.13;;;3.20;;
3922;SDS011;1976;51.694;6.256;2023-07-13T00:19:08;10.37;;;2.77;;
3922;SDS011;1976;51.694;6.256;2023-07-13T00:21:35;5.53;;;2.40;;
3922;SDS011;1976;51.694;6.256;2023-07-13T00:24:01;3.73;;;2.50;;
3922;SDS011;1976;51.694;6.256;2023-07-13T00:26:27;5.37;;;2.77;;
3922;SDS011;1976;51.694;6.256;2023-07-13T00:28:53;5.40;;;2.30;;
3922;SDS011;1976;51.694;6.256;2023-07-13T00:31:19;12.23;;;2.30;;
3922;SDS011;1976;51.694;6.256;2023-07-13T00:33:46;12.17;;;2.27;;
3922;SDS011;1976;51.694;6.256;2023-07-13T00:36:12;6.90;;;2.47;;
3922;SDS011;1976;51.694;6.256;2023-07-13T00:38:39;5.73;;;2.30;;
3922;SDS011;1976;51.694;6.256;2023-07-13T00:41:05;10.50;;;2.60;;
3922;SDS011;1976;51.694;6.256;2023-07-13T00:43:31;4.47;;;2.17;;
3922;SDS011;1976;51.694;6.256;2023-07-13T00:48:27;8.03;;;2.50;;
3922;SDS011;1976;51.694;6.256;2023-07-13T00:50:55;9.23;;;2.87;;
3922;SDS011;1976;51.694;6.256;2023-07-13T00:53:22;6.93;;;2.97;;
3922;SDS011;1976;51.694;6.256;2023-07-13T00:55:50;7.10;;;2.57;;
3922;SDS011;1976;51.694;6.256;2023-07-13T00:58:16;10.73;;;2.10;;
3922;SDS011;1976;51.694;6.256;2023-07-13T01:00:42;5.07;;;2.90;;
3922;SDS011;1976;51.694;6.256;2023-07-13T01:03:08;5.97;;;3.00;;
3922;SDS011;1976;51.694;6.256;2023-07-13T01:05:35;12.57;;;3.20;;
3922;SDS011;1976;51.694;6.256;2023-07-13T01:08:02;14.57;;;2.83;;
3922;SDS011;1976;51.694;6.256;2023-07-13T01:10:31;6.70;;;2.73;;
3922;SDS011;1976;51.694;6.256;2023-07-13T01:13:03;7.00;;;2.10;;
3922;SDS011;1976;51.694;6.256;2023-07-13T01:17:58;4.03;;;2.40;;
3922;SDS011;1976;51.694;6.256;2023-07-13T01:20:24;10.73;;;2.53;;
3922;SDS011;1976;51.694;6.256;2023-07-13T01:22:50;11.33;;;2.50;;
3922;SDS011;1976;51.694;6.256;2023-07-13T01:25:16;4.37;;;2.30;;
3922;SDS011;1976;51.694;6.256;2023-07-13T01:27:42;20.97;;;3.10;;
3922;SDS011;1976;51.694;6.256;2023-07-13T01:30:09;7.13;;;2.97;;
3922;SDS011;1976;51.694;6.256;2023-07-13T01:32:35;7.00;;;2.10;;
3922;SDS011;1976;51.694;6.256;2023-07-13T01:35:02;9.73;;;2.03;;
3922;SDS011;1976;51.694;6.256;2023-07-13T01:37:28;3.93;;;2.03;;
3922;SDS011;1976;51.694;6.256;2023-07-13T01:39:58;8.23;;;2.37;;
3922;SDS011;1976;51.694;6.256;2023-07-13T01:42:25;12.90;;;3.03;;
3922;SDS011;1976;51.694;6.256;2023-07-13T01:44:51;8.30;;;2.57;;
3922;SDS011;1976;51.694;6.256;2023-07-13T01:47:17;3.10;;;2.73;;
3922;SDS011;1976;51.694;6.256;2023-07-13T01:49:42;4.17;;;1.93;;
3922;SDS011;1976;51.694;6.256;2023-07-13T01:52:10;4.47;;;1.63;;
3922;SDS011;1976;51.694;6.256;2023-07-13T01:54:36;2.50;;;1.83;;
3922;SDS011;1976;51.694;6.256;2023-07-13T01:57:03;8.33;;;2.20;;
3922;SDS011;1976;51.694;6.256;2023-07-13T01:59:29;6.10;;;2.50;;
3922;SDS011;1976;51.694;6.256;2023-07-13T02:01:55;4.60;;;2.20;;
3922;SDS011;1976;51.694;6.256;2023-07-13T02:04:21;3.20;;;2.10;;
3922;SDS011;1976;51.694;6.256;2023-07-13T02:06:47;15.23;;;2.90;;
3922;SDS011;1976;51.694;6.256;2023-07-13T02:09:13;5.93;;;2.40;;
3922;SDS011;1976;51.694;6.256;2023-07-13T02:11:39;5.63;;;2.40;;
3922;SDS011;1976;51.694;6.256;2023-07-13T02:14:05;4.13;;;2.20;;
3922;SDS011;1976;51.694;6.256;2023-07-13T02:16:32;10.33;;;2.43;;
3922;SDS011;1976;51.694;6.256;2023-07-13T02:18:58;3.20;;;1.77;;
3922;SDS011;1976;51.694;6.256;2023-07-13T02:21:25;8.17;;;2.47;;
3922;SDS011;1976;51.694;6.256;2023-07-13T02:23:51;11.00;;;1.87;;
3922;SDS011;1976;51.694;6.256;2023-07-13T02:26:18;2.53;;;1.53;;
3922;SDS011;1976;51.694;6.256;2023-07-13T02:28:44;7.07;;;2.40;;
3922;SDS011;1976;51.694;6.256;2023-07-13T02:31:12;15.67;;;2.40;;
3922;SDS011;1976;51.694;6.256;2023-07-13T02:33:38;10.70;;;2.30;;
3922;SDS011;1976;51.694;6.256;2023-07-13T02:36:04;7.43;;;2.30;;
3922;SDS011;1976;51.694;6.256;2023-07-13T02:38:30;2.23;;;2.00;;
3922;SDS011;1976;51.694;6.256;2023-07-13T02:40:58;10.63;;;2.53;;
3922;SDS011;1976;51.694;6.256;2023-07-13T02:43:24;13.70;;;2.77;;
3922;SDS011;1976;51.694;6.256;2023-07-13T02:45:50;10.93;;;2.40;;
3922;SDS011;1976;51.694;6.256;2023-07-13T02:48:16;11.47;;;2.60;;
3922;SDS011;1976;51.694;6.256;2023-07-13T02:50:44;6.57;;;2.70;;
3922;SDS011;1976;51.694;6.256;2023-07-13T02:53:10;12.50;;;2.47;;
3922;SDS011;1976;51.694;6.256;2023-07-13T02:55:36;30.77;;;2.73;;
3922;SDS011;1976;51.694;6.256;2023-07-13T02:58:02;6.17;;;2.40;;
3922;SDS011;1976;51.694;6.256;2023-07-13T03:00:28;9.23;;;2.60;;
3922;SDS011;1976;51.694;6.256;2023-07-13T03:02:54;15.10;;;2.20;;
3922;SDS011;1976;51.694;6.256;2023-07-13T03:05:22;4.83;;;1.97;;
3922;SDS011;1976;51.694;6.256;2023-07-13T03:07:48;10.73;;;2.13;;
3922;SDS011;1976;51.694;6.256;2023-07-13T03:10:14;6.17;;;2.63;;
3922;SDS011;1976;51.694;6.256;2023-07-13T03:12:41;6.67;;;2.60;;
3922;SDS011;1976;51.694;6.256;2023-07-13T03:15:07;5.80;;;2.20;;
3922;SDS011;1976;51.694;6.256;2023-07-13T03:17:33;6.17;;;2.10;;
3922;SDS011;1976;51.694;6.256;2023-07-13T03:19:59;3.57;;;2.23;;
3922;SDS011;1976;51.694;6.256;2023-07-13T03:22:25;5.47;;;2.70;;
3922;SDS011;1976;51.694;6.256;2023-07-13T03:24:51;17.60;;;3.40;;
3922;SDS011;1976;51.694;6.256;2023-07-13T03:27:17;6.30;;;2.37;;
3922;SDS011;1976;51.694;6.256;2023-07-13T03:29:43;6.20;;;2.27;;
3922;SDS011;1976;51.694;6.256;2023-07-13T03:32:09;11.03;;;2.20;;
3922;SDS011;1976;51.694;6.256;2023-07-13T03:34:36;5.90;;;2.30;;
3922;SDS011;1976;51.694;6.256;2023-07-13T03:37:02;5.07;;;2.30;;
3922;SDS011;1976;51.694;6.256;2023-07-13T03:39:28;8.30;;;2.50;;
3922;SDS011;1976;51.694;6.256;2023-07-13T03:41:54;6.10;;;2.87;;
3922;SDS011;1976;51.694;6.256;2023-07-13T03:44:20;4.63;;;2.53;;
3922;SDS011;1976;51.694;6.256;2023-07-13T03:46:46;4.93;;;2.37;;
3922;SDS011;1976;51.694;6.256;2023-07-13T03:49:12;8.90;;;3.33;;
3922;SDS011;1976;51.694;6.256;2023-07-13T03:51:38;6.80;;;2.30;;
3922;SDS011;1976;51.694;6.256;2023-07-13T03:54:04;8.83;;;3.10;;
3922;SDS011;1976;51.694;6.256;2023-07-13T03:56:31;7.53;;;2.30;;
3922;SDS011;1976;51.694;6.256;2023-07-13T03:58:58;9.30;;;2.33;;
3922;SDS011;1976;51.694;6.256;2023-07-13T04:01:25;4.13;;;2.47;;
3922;SDS011;1976;51.694;6.256;2023-07-13T04:03:51;6.63;;;1.90;;
3922;SDS011;1976;51.694;6.256;2023-07-13T04:06:21;6.73;;;2.57;;
3922;SDS011;1976;51.694;6.256;2023-07-13T04:08:49;7.03;;;2.20;;
3922;SDS011;1976;51.694;6.256;2023-07-13T04:11:16;5.90;;;2.47;;
3922;SDS011;1976;51.694;6.256;2023-07-13T04:13:42;5.83;;;2.10;;
3922;SDS011;1976;51.694;6.256;2023-07-13T04:16:09;7.77;;;2.63;;
3922;SDS011;1976;51.694;6.256;2023-07-13T04:18:35;14.03;;;3.40;;
3922;SDS011;1976;51.694;6.256;2023-07-13T04:21:01;4.97;;;2.13;;
3922;SDS011;1976;51.694;6.256;2023-07-13T04:23:27;13.40;;;2.97;;
3922;SDS011;1976;51.694;6.256;2023-07-13T04:25:53;4.30;;;2.30;;
3922;SDS011;1976;51.694;6.256;2023-07-13T04:28:21;8.33;;;3.27;;
3922;SDS011;1976;51.694;6.256;2023-07-13T04:30:47;6.20;;;3.13;;
3922;SDS011;1976;51.694;6.256;2023-07-13T04:33:13;4.53;;;2.50;;
3922;SDS011;1976;51.694;6.256;2023-07-13T04:35:39;5.50;;;1.70;;
3922;SDS011;1976;51.694;6.256;2023-07-13T04:38:05;7.10;;;2.80;;
3922;SDS011;1976;51.694;6.256;2023-07-13T04:40:31;8.17;;;2.70;;
3922;SDS011;1976;51.694;6.256;2023-07-13T04:42:57;6.73;;;3.27;;
3922;SDS011;1976;51.694;6.256;2023-07-13T04:45:24;16.80;;;3.20;;
3922;SDS011;1976;51.694;6.256;2023-07-13T04:47:50;15.53;;;3.27;;
3922;SDS011;1976;51.694;6.256;2023-07-13T04:50:16;12.10;;;2.67;;
3922;SDS011;1976;51.694;6.256;2023-07-13T04:52:46;3.97;;;2.30;;
3922;SDS011;1976;51.694;6.256;2023-07-13T04:55:12;9.63;;;2.63;;
3922;SDS011;1976;51.694;6.256;2023-07-13T04:57:38;7.63;;;2.50;;
3922;SDS011;1976;51.694;6.256;2023-07-13T05:00:04;9.87;;;2.63;;
3922;SDS011;1976;51.694;6.256;2023-07-13T05:02:32;8.00;;;2.57;;
3922;SDS011;1976;51.694;6.256;2023-07-13T05:04:58;8.80;;;2.67;;
3922;SDS011;1976;51.694;6.256;2023-07-13T05:07:25;10.40;;;3.27;;
3922;SDS011;1976;51.694;6.256;2023-07-13T05:09:51;18.37;;;3.83;;
3922;SDS011;1976;51.694;6.256;2023-07-13T05:12:17;11.57;;;2.80;;
3922;SDS011;1976;51.694;6.256;2023-07-13T05:14:43;7.20;;;3.20;;
3922;SDS011;1976;51.694;6.256;2023-07-13T05:17:10;7.70;;;3.00;;
3922;SDS011;1976;51.694;6.256;2023-07-13T05:19:36;13.10;;;3.53;;
3922;SDS011;1976;51.694;6.256;2023-07-13T05:22:02;13.90;;;3.13;;
3922;SDS011;1976;51.694;6.256;2023-07-13T05:24:29;8.93;;;4.27;;
3922;SDS011;1976;51.694;6.256;2023-07-13T05:26:55;16.03;;;4.23;;
3922;SDS011;1976;51.694;6.256;2023-07-13T05:29:21;14.20;;;5.00;;
3922;SDS011;1976;51.694;6.256;2023-07-13T05:31:48;18.90;;;4.20;;
3922;SDS011;1976;51.694;6.256;2023-07-13T05:34:14;13.47;;;4.60;;
3922;SDS011;1976;51.694;6.256;2023-07-13T05:36:40;21.07;;;5.73;;
3922;SDS011;1976;51.694;6.256;2023-07-13T05:39:07;26.33;;;6.00;;
3922;SDS011;1976;51.694;6.256;2023-07-13T05:41:33;23.63;;;4.40;;
3922;SDS011;1976;51.694;6.256;2023-07-13T05:43:59;19.30;;;5.17;;
3922;SDS011;1976;51.694;6.256;2023-07-13T05:46:25;9.57;;;2.90;;
3922;SDS011;1976;51.694;6.256;2023-07-13T05:48:51;15.70;;;5.07;;
3922;SDS011;1976;51.694;6.256;2023-07-13T05:51:17;26.47;;;4.83;;
3922;SDS011;1976;51.694;6.256;2023-07-13T05:53:43;12.27;;;5.97;;
3922;SDS011;1976;51.694;6.256;2023-07-13T05:56:09;10.50;;;4.20;;
3922;SDS011;1976;51.694;6.256;2023-07-13T05:58:36;20.93;;;6.30;;
3922;SDS011;1976;51.694;6.256;2023-07-13T06:01:04;11.80;;;6.03;;
3922;SDS011;1976;51.694;6.256;2023-07-13T06:03:31;15.67;;;6.93;;
3922;SDS011;1976;51.694;6.256;2023-07-13T06:05:57;20.90;;;6.77;;
3922;SDS011;1976;51.694;6.256;2023-07-13T06:08:25;19.40;;;8.00;;
3922;SDS011;1976;51.694;6.256;2023-07-13T06:10:51;29.43;;;8.90;;
3922;SDS011;1976;51.694;6.256;2023-07-13T06:13:17;11.90;;;4.60;;
3922;SDS011;1976;51.694;6.256;2023-07-13T06:15:47;24.93;;;6.17;;
3922;SDS011;1976;51.694;6.256;2023-07-13T06:18:13;16.70;;;7.57;;
3922;SDS011;1976;51.694;6.256;2023-07-13T06:20:39;15.40;;;7.50;;
3922;SDS011;1976;51.694;6.256;2023-07-13T06:23:05;15.97;;;6.70;;
3922;SDS011;1976;51.694;6.256;2023-07-13T06:25:31;10.10;;;6.00;;
3922;SDS011;1976;51.694;6.256;2023-07-13T06:27:57;22.80;;;7.53;;
3922;SDS011;1976;51.694;6.256;2023-07-13T06:30:23;37.93;;;9.40;;
3922;SDS011;1976;51.694;6.256;2023-07-13T06:32:49;18.73;;;8.67;;
3922;SDS011;1976;51.694;6.256;2023-07-13T06:35:15;27.13;;;6.97;;
3922;SDS011;1976;51.694;6.256;2023-07-13T06:37:41;18.83;;;5.87;;
3922;SDS011;1976;51.694;6.256;2023-07-13T06:40:07;12.00;;;5.53;;
3922;SDS011;1976;51.694;6.256;2023-07-13T06:42:34;16.80;;;7.00;;
3922;SDS011;1976;51.694;6.256;2023-07-13T06:45:00;28.80;;;8.77;;
3922;SDS011;1976;51.694;6.256;2023-07-13T06:47:26;20.63;;;8.20;;
3922;SDS011;1976;51.694;6.256;2023-07-13T06:49:52;16.00;;;5.50;;
3922;SDS011;1976;51.694;6.256;2023-07-13T06:52:18;22.53;;;6.70;;
3922;SDS011;1976;51.694;6.256;2023-07-13T06:54:44;17.67;;;6.13;;
3922;SDS011;1976;51.694;6.256;2023-07-13T06:57:10;15.67;;;6.07;;
3922;SDS011;1976;51.694;6.256;2023-07-13T06:59:36;17.40;;;5.80;;
3922;SDS011;1976;51.694;6.256;2023-07-13T07:02:02;13.67;;;5.67;;
3922;SDS011;1976;51.694;6.256;2023-07-13T07:04:28;15.87;;;6.00;;
3922;SDS011;1976;51.694;6.256;2023-07-13T07:06:54;22.30;;;6.93;;
3922;SDS011;1976;51.694;6.256;2023-07-13T07:09:20;16.97;;;7.20;;
3922;SDS011;1976;51.694;6.256;2023-07-13T07:11:46;15.07;;;6.23;;
3922;SDS011;1976;51.694;6.256;2023-07-13T07:14:12;23.17;;;7.47;;
3922;SDS011;1976;51.694;6.256;2023-07-13T07:16:38;22.97;;;7.90;;
3922;SDS011;1976;51.694;6.256;2023-07-13T07:19:04;16.70;;;4.67;;
3922;SDS011;1976;51.694;6.256;2023-07-13T07:21:30;18.70;;;7.00;;
3922;SDS011;1976;51.694;6.256;2023-07-13T07:23:56;20.83;;;6.87;;
3922;SDS011;1976;51.694;6.256;2023-07-13T07:26:22;31.20;;;5.90;;
3922;SDS011;1976;51.694;6.256;2023-07-13T07:28:48;17.00;;;4.90;;
3922;SDS011;1976;51.694;6.256;2023-07-13T07:31:14;11.23;;;4.30;;
3922;SDS011;1976;51.694;6.256;2023-07-13T07:33:40;14.23;;;6.17;;
3922;SDS011;1976;51.694;6.256;2023-07-13T07:36:06;5.37;;;3.40;;
3922;SDS011;1976;51.694;6.256;2023-07-13T07:38:32;17.40;;;7.07;;
3922;SDS011;1976;51.694;6.256;2023-07-13T07:41:01;24.20;;;6.23;;
3922;SDS011;1976;51.694;6.256;2023-07-13T07:43:28;9.83;;;4.30;;
3922;SDS011;1976;51.694;6.256;2023-07-13T07:45:55;5.70;;;3.67;;
3922;SDS011;1976;51.694;6.256;2023-07-13T07:48:21;9.73;;;5.40;;
3922;SDS011;1976;51.694;6.256;2023-07-13T07:50:47;16.13;;;5.47;;
3922;SDS011;1976;51.694;6.256;2023-07-13T07:53:13;7.00;;;3.10;;
3922;SDS011;1976;51.694;6.256;2023-07-13T07:55:39;4.30;;;3.13;;
3922;SDS011;1976;51.694;6.256;2023-07-13T07:58:05;12.97;;;5.50;;
3922;SDS011;1976;51.694;6.256;2023-07-13T08:00:31;13.10;;;4.10;;
3922;SDS011;1976;51.694;6.256;2023-07-13T08:02:58;18.87;;;5.87;;
3922;SDS011;1976;51.694;6.256;2023-07-13T08:05:24;16.20;;;5.50;;
3922;SDS011;1976;51.694;6.256;2023-07-13T08:07:51;9.83;;;3.87;;
3922;SDS011;1976;51.694;6.256;2023-07-13T08:10:17;4.63;;;2.97;;
3922;SDS011;1976;51.694;6.256;2023-07-13T08:12:43;8.73;;;3.27;;
3922;SDS011;1976;51.694;6.256;2023-07-13T08:15:10;15.87;;;4.57;;
3922;SDS011;1976;51.694;6.256;2023-07-13T08:17:37;36.27;;;6.60;;
3922;SDS011;1976;51.694;6.256;2023-07-13T08:20:03;16.33;;;4.70;;
3922;SDS011;1976;51.694;6.256;2023-07-13T08:22:29;18.20;;;5.43;;
3922;SDS011;1976;51.694;6.256;2023-07-13T08:24:55;11.37;;;5.00;;
3922;SDS011;1976;51.694;6.256;2023-07-13T08:27:22;13.60;;;5.37;;
3922;SDS011;1976;51.694;6.256;2023-07-13T08:29:48;13.40;;;6.03;;
3922;SDS011;1976;51.694;6.256;2023-07-13T08:32:15;16.60;;;6.57;;
3922;SDS011;1976;51.694;6.256;2023-07-13T08:34:41;9.13;;;4.83;;
3922;SDS011;1976;51.694;6.256;2023-07-13T08:37:07;14.50;;;5.03;;
3922;SDS011;1976;51.694;6.256;2023-07-13T08:39:34;7.30;;;4.47;;
3922;SDS011;1976;51.694;6.256;2023-07-13T08:42:01;13.77;;;5.90;;
3922;SDS011;1976;51.694;6.256;2023-07-13T08:44:30;6.87;;;2.90;;
3922;SDS011;1976;51.694;6.256;2023-07-13T08:47:01;3.87;;;2.67;;
3922;SDS011;1976;51.694;6.256;2023-07-13T08:49:28;15.23;;;4.77;;
3922;SDS011;1976;51.694;6.256;2023-07-13T08:52:01;14.07;;;5.03;;
3922;SDS011;1976;51.694;6.256;2023-07-13T08:54:38;12.03;;;6.87;;
3922;SDS011;1976;51.694;6.256;2023-07-13T08:57:19;12.50;;;5.90;;
3922;SDS011;1976;51.694;6.256;2023-07-13T08:59:46;21.70;;;6.10;;
3922;SDS011;1976;51.694;6.256;2023-07-13T09:04:44;22.73;;;6.00;;
3922;SDS011;1976;51.694;6.256;2023-07-13T09:07:29;21.40;;;5.77;;
3922;SDS011;1976;51.694;6.256;2023-07-13T09:12:41;7.53;;;4.60;;
3922;SDS011;1976;51.694;6.256;2023-07-13T09:15:22;25.43;;;5.90;;
3922;SDS011;1976;51.694;6.256;2023-07-13T09:17:50;24.07;;;6.67;;
3922;SDS011;1976;51.694;6.256;2023-07-13T09:22:42;14.00;;;6.27;;
3922;SDS011;1976;51.694;6.256;2023-07-13T09:28:10;13.63;;;5.60;;
3922;SDS011;1976;51.694;6.256;2023-07-13T09:30:39;12.53;;;4.90;;
3922;SDS011;1976;51.694;6.256;2023-07-13T09:33:08;15.97;;;5.50;;
3922;SDS011;1976;51.694;6.256;2023-07-13T09:35:34;8.10;;;3.83;;
3922;SDS011;1976;51.694;6.256;2023-07-13T09:38:14;5.50;;;4.07;;
3922;SDS011;1976;51.694;6.256;2023-07-13T09:40:59;21.27;;;5.60;;
3922;SDS011;1976;51.694;6.256;2023-07-13T09:43:26;5.47;;;3.10;;
3922;SDS011;1976;51.694;6.256;2023-07-13T09:45:54;16.80;;;4.37;;
3922;SDS011;1976;51.694;6.256;2023-07-13T09:48:20;5.63;;;3.23;;
3922;SDS011;1976;51.694;6.256;2023-07-13T09:50:46;10.17;;;3.63;;
3922;SDS011;1976;51.694;6.256;2023-07-13T09:53:13;16.80;;;4.10;;
3922;SDS011;1976;51.694;6.256;2023-07-13T09:55:40;10.43;;;2.80;;
3922;SDS011;1976;51.694;6.256;2023-07-13T10:00:39;9.07;;;3.40;;
3922;SDS011;1976;51.694;6.256;2023-07-13T10:03:14;7.40;;;2.80;;
3922;SDS011;1976;51.694;6.256;2023-07-13T10:05:42;14.13;;;3.50;;
3922;SDS011;1976;51.694;6.256;2023-07-13T10:08:24;9.47;;;3.30;;
3922;SDS011;1976;51.694;6.256;2023-07-13T10:10:53;14.03;;;3.37;;
3922;SDS011;1976;51.694;6.256;2023-07-13T10:13:36;9.73;;;3.37;;
3922;SDS011;1976;51.694;6.256;2023-07-13T10:16:03;6.10;;;2.23;;
3922;SDS011;1976;51.694;6.256;2023-07-13T10:18:31;3.47;;;1.80;;
3922;SDS011;1976;51.694;6.256;2023-07-13T10:20:59;10.37;;;4.10;;
3922;SDS011;1976;51.694;6.256;2023-07-13T10:23:27;14.83;;;6.03;;
3922;SDS011;1976;51.694;6.256;2023-07-13T10:25:56;10.00;;;2.60;;
3922;SDS011;1976;51.694;6.256;2023-07-13T10:28:27;2.43;;;1.87;;
3922;SDS011;1976;51.694;6.256;2023-07-13T10:30:54;12.10;;;2.93;;
3922;SDS011;1976;51.694;6.256;2023-07-13T10:33:22;14.93;;;2.70;;
3922;SDS011;1976;51.694;6.256;2023-07-13T10:35:48;4.80;;;2.20;;
3922;SDS011;1976;51.694;6.256;2023-07-13T10:38:22;5.73;;;2.03;;
3922;SDS011;1976;51.694;6.256;2023-07-13T10:41:00;7.23;;;2.90;;
3922;SDS011;1976;51.694;6.256;2023-07-13T10:43:29;9.17;;;2.00;;
3922;SDS011;1976;51.694;6.256;2023-07-13T10:45:57;8.83;;;2.73;;
3922;SDS011;1976;51.694;6.256;2023-07-13T10:48:25;4.23;;;2.33;;
3922;SDS011;1976;51.694;6.256;2023-07-13T10:50:52;5.43;;;2.07;;
3922;SDS011;1976;51.694;6.256;2023-07-13T10:53:22;8.60;;;2.50;;
3922;SDS011;1976;51.694;6.256;2023-07-13T10:58:20;5.03;;;3.00;;
3922;SDS011;1976;51.694;6.256;2023-07-13T11:00:56;5.17;;;2.53;;
3922;SDS011;1976;51.694;6.256;2023-07-13T11:03:22;16.67;;;2.60;;
3922;SDS011;1976;51.694;6.256;2023-07-13T11:05:51;5.70;;;2.57;;
3922;SDS011;1976;51.694;6.256;2023-07-13T11:10:56;6.20;;;2.10;;
3922;SDS011;1976;51.694;6.256;2023-07-13T11:16:14;7.43;;;2.47;;
3922;SDS011;1976;51.694;6.256;2023-07-13T11:21:27;9.23;;;2.10;;
3922;SDS011;1976;51.694;6.256;2023-07-13T11:24:12;1.87;;;1.43;;
3922;SDS011;1976;51.694;6.256;2023-07-13T11:26:43;5.03;;;1.63;;
3922;SDS011;1976;51.694;6.256;2023-07-13T11:31:57;2.23;;;1.67;;
3922;SDS011;1976;51.694;6.256;2023-07-13T11:34:28;4.10;;;1.97;;
3922;SDS011;1976;51.694;6.256;2023-07-13T11:36:55;4.83;;;2.40;;
3922;SDS011;1976;51.694;6.256;2023-07-13T11:39:24;4.23;;;2.33;;
3922;SDS011;1976;51.694;6.256;2023-07-13T11:41:56;3.23;;;1.90;;
3922;SDS011;1976;51.694;6.256;2023-07-13T11:44:23;3.97;;;2.10;;
3922;SDS011;1976;51.694;6.256;2023-07-13T11:46:50;33.93;;;3.37;;
3922;SDS011;1976;51.694;6.256;2023-07-13T11:49:20;14.13;;;3.50;;
3922;SDS011;1976;51.694;6.256;2023-07-13T11:51:47;13.83;;;4.37;;
3922;SDS011;1976;51.694;6.256;2023-07-13T11:54:26;10.67;;;4.43;;
3922;SDS011;1976;51.694;6.256;2023-07-13T11:56:54;14.07;;;5.23;;
3922;SDS011;1976;51.694;6.256;2023-07-13T11:59:21;25.87;;;7.07;;
3922;SDS011;1976;51.694;6.256;2023-07-13T12:01:49;17.90;;;6.47;;
3922;SDS011;1976;51.694;6.256;2023-07-13T12:07:03;0.60;;;0.60;;
3922;SDS011;1976;51.694;6.256;2023-07-13T12:09:30;0.60;;;0.60;;
3922;SDS011;1976;51.694;6.256;2023-07-13T12:11:57;0.60;;;0.60;;
3922;SDS011;1976;51.694;6.256;2023-07-13T12:14:26;0.60;;;0.60;;
3922;SDS011;1976;51.694;6.256;2023-07-13T12:16:52;0.60;;;0.60;;
3922;SDS011;1976;51.694;6.256;2023-07-13T12:19:22;0.67;;;0.67;;
3922;SDS011;1976;51.694;6.256;2023-07-13T12:21:48;0.60;;;0.50;;
3922;SDS011;1976;51.694;6.256;2023-07-13T12:24:16;0.70;;;0.70;;
3922;SDS011;1976;51.694;6.256;2023-07-13T12:26:42;0.50;;;0.50;;
3922;SDS011;1976;51.694;6.256;2023-07-13T12:29:11;0.50;;;0.50;;
3922;SDS011;1976;51.694;6.256;2023-07-13T12:31:41;0.50;;;0.50;;
3922;SDS011;1976;51.694;6.256;2023-07-13T12:34:19;0.50;;;0.50;;
3922;SDS011;1976;51.694;6.256;2023-07-13T12:36:51;0.50;;;0.40;;
3922;SDS011;1976;51.694;6.256;2023-07-13T12:41:47;0.50;;;0.50;;
3922;SDS011;1976;51.694;6.256;2023-07-13T12:44:15;0.50;;;0.50;;
3922;SDS011;1976;51.694;6.256;2023-07-13T12:46:58;0.50;;;0.50;;
3922;SDS011;1976;51.694;6.256;2023-07-13T12:49:27;0.73;;;0.73;;
3922;SDS011;1976;51.694;6.256;2023-07-13T12:51:57;0.50;;;0.50;;
3922;SDS011;1976;51.694;6.256;2023-07-13T12:54:24;0.50;;;0.50;;
3922;SDS011;1976;51.694;6.256;2023-07-13T12:56:50;0.50;;;0.50;;
3922;SDS011;1976;51.694;6.256;2023-07-13T12:59:19;0.50;;;0.50;;
3922;SDS011;1976;51.694;6.256;2023-07-13T13:01:45;5.03;;;1.17;;
3922;SDS011;1976;51.694;6.256;2023-07-13T13:04:11;0.50;;;0.50;;
3922;SDS011;1976;51.694;6.256;2023-07-13T13:06:38;0.50;;;0.50;;
3922;SDS011;1976;51.694;6.256;2023-07-13T13:09:09;0.50;;;0.50;;
3922;SDS011;1976;51.694;6.256;2023-07-13T13:11:38;0.50;;;0.50;;
3922;SDS011;1976;51.694;6.256;2023-07-13T13:14:05;0.50;;;0.50;;
3922;SDS011;1976;51.694;6.256;2023-07-13T13:16:35;0.50;;;0.50;;
3922;SDS011;1976;51.694;6.256;2023-07-13T13:19:15;0.73;;;0.70;;
3922;SDS011;1976;51.694;6.256;2023-07-13T13:21:42;0.60;;;0.50;;
3922;SDS011;1976;51.694;6.256;2023-07-13T13:24:13;0.60;;;0.50;;
3922;SDS011;1976;51.694;6.256;2023-07-13T13:26:40;0.50;;;0.50;;
3922;SDS011;1976;51.694;6.256;2023-07-13T13:29:16;0.50;;;0.50;;
3922;SDS011;1976;51.694;6.256;2023-07-13T13:31:43;0.50;;;0.50;;
3922;SDS011;1976;51.694;6.256;2023-07-13T13:34:10;0.50;;;0.50;;
3922;SDS011;1976;51.694;6.256;2023-07-13T13:36:37;0.50;;;0.40;;
3922;SDS011;1976;51.694;6.256;2023-07-13T13:39:08;0.50;;;0.50;;
3922;SDS011;1976;51.694;6.256;2023-07-13T13:41:41;0.50;;;0.50;;
3922;SDS011;1976;51.694;6.256;2023-07-13T13:44:08;0.50;;;0.50;;
3922;SDS011;1976;51.694;6.256;2023-07-13T13:46:35;0.70;;;0.60;;
3922;SDS011;1976;51.694;6.256;2023-07-13T13:49:01;0.50;;;0.50;;
3922;SDS011;1976;51.694;6.256;2023-07-13T13:51:27;0.50;;;0.50;;
3922;SDS011;1976;51.694;6.256;2023-07-13T13:53:54;0.50;;;0.50;;
3922;SDS011;1976;51.694;6.256;2023-07-13T13:56:20;0.53;;;0.53;;
3922;SDS011;1976;51.694;6.256;2023-07-13T13:58:46;0.50;;;0.50;;
3922;SDS011;1976;51.694;6.256;2023-07-13T14:01:13;0.50;;;0.50;;
3922;SDS011;1976;51.694;6.256;2023-07-13T14:03:41;0.50;;;0.50;;
3922;SDS011;1976;51.694;6.256;2023-07-13T14:06:08;0.50;;;0.50;;
3922;SDS011;1976;51.694;6.256;2023-07-13T14:08:34;0.50;;;0.50;;
3922;SDS011;1976;51.694;6.256;2023-07-13T14:11:00;0.50;;;0.50;;
3922;SDS011;1976;51.694;6.256;2023-07-13T14:13:34;0.60;;;0.60;;
3922;SDS011;1976;51.694;6.256;2023-07-13T14:16:01;0.60;;;0.60;;
3922;SDS011;1976;51.694;6.256;2023-07-13T14:18:27;0.60;;;0.50;;
3922;SDS011;1976;51.694;6.256;2023-07-13T14:20:54;0.60;;;0.50;;
3922;SDS011;1976;51.694;6.256;2023-07-13T14:23:20;0.60;;;0.50;;
3922;SDS011;1976;51.694;6.256;2023-07-13T14:25:46;0.60;;;0.60;;
3922;SDS011;1976;51.694;6.256;2023-07-13T14:28:33;0.60;;;0.50;;
3922;SDS011;1976;51.694;6.256;2023-07-13T14:30:58;0.60;;;0.50;;
3922;SDS011;1976;51.694;6.256;2023-07-13T14:33:24;0.60;;;0.50;;
3922;SDS011;1976;51.694;6.256;2023-07-13T14:35:50;0.60;;;0.50;;
3922;SDS011;1976;51.694;6.256;2023-07-13T14:38:17;0.60;;;0.60;;
3922;SDS011;1976;51.694;6.256;2023-07-13T14:40:44;0.60;;;0.60;;
3922;SDS011;1976;51.694;6.256;2023-07-13T14:43:11;0.60;;;0.60;;
3922;SDS011;1976;51.694;6.256;2023-07-13T14:45:39;0.60;;;0.60;;
3922;SDS011;1976;51.694;6.256;2023-07-13T14:48:09;0.60;;;0.60;;
3922;SDS011;1976;51.694;6.256;2023-07-13T14:50:38;0.60;;;0.60;;
3922;SDS011;1976;51.694;6.256;2023-07-13T14:53:09;0.60;;;0.60;;
3922;SDS011;1976;51.694;6.256;2023-07-13T14:55:35;0.60;;;0.50;;
3922;SDS011;1976;51.694;6.256;2023-07-13T14:58:08;0.60;;;0.60;;
3922;SDS011;1976;51.694;6.256;2023-07-13T15:00:35;0.60;;;0.60;;
3922;SDS011;1976;51.694;6.256;2023-07-13T15:03:02;0.60;;;0.60;;
3922;SDS011;1976;51.694;6.256;2023-07-13T15:05:32;0.60;;;0.50;;
3922;SDS011;1976;51.694;6.256;2023-07-13T15:07:59;0.60;;;0.60;;
3922;SDS011;1976;51.694;6.256;2023-07-13T15:10:27;0.60;;;0.60;;
3922;SDS011;1976;51.694;6.256;2023-07-13T15:12:57;0.60;;;0.60;;
3922;SDS011;1976;51.694;6.256;2023-07-13T15:15:24;0.60;;;0.60;;
3922;SDS011;1976;51.694;6.256;2023-07-13T15:17:50;0.60;;;0.60;;
3922;SDS011;1976;51.694;6.256;2023-07-13T15:22:43;0.60;;;0.53;;
3922;SDS011;1976;51.694;6.256;2023-07-13T15:25:16;0.60;;;0.60;;
3922;SDS011;1976;51.694;6.256;2023-07-13T15:27:43;0.60;;;0.50;;
3922;SDS011;1976;51.694;6.256;2023-07-13T15:30:09;0.60;;;0.60;;
3922;SDS011;1976;51.694;6.256;2023-07-13T15:32:35;0.70;;;0.50;;
3922;SDS011;1976;51.694;6.256;2023-07-13T15:35:02;0.60;;;0.60;;
3922;SDS011;1976;51.694;6.256;2023-07-13T15:37:29;0.60;;;0.60;;
3922;SDS011;1976;51.694;6.256;2023-07-13T15:39:55;0.60;;;0.50;;
3922;SDS011;1976;51.694;6.256;2023-07-13T15:42:23;0.60;;;0.50;;
3922;SDS011;1976;51.694;6.256;2023-07-13T15:44:49;0.60;;;0.50;;
3922;SDS011;1976;51.694;6.256;2023-07-13T15:47:15;0.60;;;0.50;;
3922;SDS011;1976;51.694;6.256;2023-07-13T15:49:43;0.60;;;0.50;;
3922;SDS011;1976;51.694;6.256;2023-07-13T15:52:18;0.60;;;0.50;;